Time;durP1;ratioP1;P1;durP2;ratioP2;P2;SDS_P1;SDS_P2;PMS_P1;PMS_P2;Temp;Humidity;BMP_temperature;BMP_pressure;BME280_temperature;BME280_humidity;BME280_pressure;Samples;Min_cycle;Max_cycle;Signal;HPM_P1;HPM_P2
2023/05/08 00:01:16;;;;;;;9.98;9.02;;;;;;;12.24;100.00;102113.59;6068415;23;20186;-76
2023/05/08 00:03:42;;;;;;;8.93;8.13;;;;;;;12.23;100.00;102118.16;6096806;23;20159;-76
2023/05/08 00:06:09;;;;;;;9.40;8.50;;;;;;;12.22;100.00;102126.59;6100179;23;20019;-76
2023/05/08 00:08:36;;;;;;;10.13;9.23;;;;;;;12.18;100.00;102123.25;6100385;23;20015;-77
2023/05/08 00:11:02;;;;;;;17.42;10.07;;;;;;;12.14;100.00;102125.25;6099966;23;20021;-77
2023/05/08 00:13:29;;;;;;;10.82;9.73;;;;;;;12.12;100.00;102117.66;6100202;23;20338;-77
2023/05/08 00:15:55;;;;;;;11.25;8.65;;;;;;;12.11;100.00;102123.41;6099756;23;20472;-77
2023/05/08 00:18:22;;;;;;;10.73;9.25;;;;;;;12.08;100.00;102118.91;6099889;23;20026;-77
2023/05/08 00:20:48;;;;;;;9.55;8.70;;;;;;;12.06;100.00;102110.56;6075087;23;20022;-77
2023/05/08 00:23:15;;;;;;;12.75;9.57;;;;;;;12.05;100.00;102103.72;6074095;23;20361;-77
2023/05/08 00:25:41;;;;;;;14.90;11.70;;;;;;;12.03;100.00;102104.88;6074531;23;20480;-77
2023/05/08 00:28:08;;;;;;;13.13;11.82;;;;;;;12.01;100.00;102101.13;6050328;23;20074;-77
2023/05/08 00:30:34;;;;;;;14.48;11.85;;;;;;;11.98;100.00;102099.31;6073240;23;20783;-77
2023/05/08 00:33:01;;;;;;;12.40;11.20;;;;;;;11.95;100.00;102100.91;6073994;23;20038;-77
2023/05/08 00:35:27;;;;;;;13.55;10.95;;;;;;;11.95;100.00;102102.81;6074292;23;20018;-77
2023/05/08 00:37:54;;;;;;;15.27;11.15;;;;;;;11.93;100.00;102102.47;6074765;23;20019;-78
2023/05/08 00:40:20;;;;;;;12.27;11.07;;;;;;;11.92;100.00;102107.06;6073926;23;20026;-77
2023/05/08 00:42:47;;;;;;;13.00;10.85;;;;;;;11.91;100.00;102110.91;6100111;23;20086;-77
2023/05/08 00:45:13;;;;;;;13.93;10.77;;;;;;;11.87;100.00;102107.56;6072949;23;20026;-77
2023/05/08 00:47:41;;;;;;;10.80;9.77;;;;;;;11.83;100.00;102100.78;6100307;23;20352;-77
2023/05/08 00:50:08;;;;;;;14.48;9.75;;;;;;;11.80;100.00;102105.03;6099909;23;20098;-76
2023/05/08 00:52:36;;;;;;;12.52;10.10;;;;;;;11.80;100.00;102107.72;6099717;23;20046;-77
2023/05/08 00:55:03;;;;;;;10.85;9.85;;;;;;;11.80;100.00;102105.03;6073902;23;20497;-77
2023/05/08 00:57:34;;;;;;;11.07;9.73;;;;;;;11.78;100.00;102103.94;6099788;23;20015;-77
2023/05/08 01:00:03;;;;;;;10.88;9.07;;;;;;;11.73;100.00;102102.50;6073451;23;20079;-77
2023/05/08 01:02:30;;;;;;;10.85;9.48;;;;;;;11.69;100.00;102105.22;6099718;23;20014;-77
2023/05/08 01:04:57;;;;;;;9.77;8.88;;;;;;;11.66;100.00;102110.63;6099980;23;20512;-77
2023/05/08 01:07:24;;;;;;;9.75;8.85;;;;;;;11.60;100.00;102102.38;6050324;23;20023;-77
2023/05/08 01:09:51;;;;;;;10.30;9.40;;;;;;;11.57;100.00;102111.22;6050310;23;20019;-77
2023/05/08 01:13:03;;;;;;;12.48;9.63;;;;;;;11.47;100.00;102112.19;6099342;23;20031;-77
2023/05/08 01:15:41;;;;;;;10.40;9.38;;;;;;;11.45;100.00;102106.50;6074463;23;20015;-77
2023/05/08 01:18:21;;;;;;;13.32;10.07;;;;;;;11.42;100.00;102107.34;6099863;23;20369;-77
2023/05/08 01:20:59;;;;;;;11.10;10.07;;;;;;;11.41;100.00;102105.81;6074581;23;20022;-77
2023/05/08 01:23:44;;;;;;;11.93;10.70;;;;;;;11.38;100.00;102101.31;6074096;23;20038;-77
2023/05/08 01:26:29;;;;;;;12.20;10.90;;;;;;;11.36;100.00;102104.38;6099789;23;20022;-77
2023/05/08 01:29:33;;;;;;;39.58;11.65;;;;;;;11.34;100.00;102101.38;6099101;23;20023;-77
2023/05/08 01:32:11;;;;;;;29.63;11.25;;;;;;;11.29;100.00;102096.53;6099499;23;20022;-77
2023/05/08 01:34:48;;;;;;;21.75;11.10;;;;;;;11.26;100.00;102104.59;6074216;23;20023;-77
2023/05/08 01:37:20;;;;;;;22.60;10.90;;;;;;;11.16;100.00;102113.56;6073434;23;20753;-78
2023/05/08 01:39:59;;;;;;;21.45;12.05;;;;;;;11.14;100.00;102110.56;6100160;23;20015;-77
2023/05/08 01:42:52;;;;;;;29.48;11.48;;;;;;;11.12;100.00;102115.53;6098964;23;20090;-77
2023/05/08 01:45:25;;;;;;;42.88;11.00;;;;;;;11.11;100.00;102114.03;6021896;23;20019;-76
2023/05/08 01:48:06;;;;;;;22.48;11.20;;;;;;;11.09;100.00;102108.38;6050038;23;20026;-75
2023/05/08 01:50:39;;;;;;;19.33;11.55;;;;;;;11.04;100.00;102104.25;6099564;23;20022;-77
2023/05/08 01:53:19;;;;;;;14.13;11.23;;;;;;;11.05;100.00;102105.00;6073384;23;20424;-77
2023/05/08 01:55:48;;;;;;;14.25;10.85;;;;;;;11.03;100.00;102108.09;6075523;23;20023;-77
2023/05/08 01:58:16;;;;;;;11.60;10.60;;;;;;;11.01;100.00;102110.41;6074233;23;20019;-77
2023/05/08 02:00:44;;;;;;;11.23;10.23;;;;;;;11.01;100.00;102121.06;6075380;23;20019;-77
2023/05/08 02:03:15;;;;;;;18.48;11.20;;;;;;;10.97;100.00;102121.13;6100317;23;20046;-77
2023/05/08 02:05:43;;;;;;;12.17;10.93;;;;;;;10.97;100.00;102115.03;6101206;23;20023;-77
2023/05/08 02:08:12;;;;;;;12.95;10.38;;;;;;;10.96;100.00;102116.97;6074682;23;20022;-77
2023/05/08 02:10:41;;;;;;;11.93;10.73;;;;;;;10.95;100.00;102118.13;6074721;23;20089;-77
2023/05/08 02:13:10;;;;;;;20.20;11.52;;;;;;;10.95;100.00;102118.13;6099925;23;20026;-77
2023/05/08 02:15:38;;;;;;;18.83;10.65;;;;;;;10.93;100.00;102119.69;6100591;23;20075;-77
2023/05/08 02:18:07;;;;;;;13.40;10.63;;;;;;;10.91;100.00;102122.75;6100841;23;20521;-77
2023/05/08 02:20:35;;;;;;;13.05;10.73;;;;;;;10.90;100.00;102121.25;6100555;23;20509;-78
2023/05/08 02:23:02;;;;;;;11.50;10.30;;;;;;;10.89;100.00;102124.31;6100336;23;20365;-76
2023/05/08 02:25:30;;;;;;;17.05;11.32;;;;;;;10.88;100.00;102120.16;6099471;23;20030;-77
2023/05/08 02:27:57;;;;;;;35.90;10.73;;;;;;;10.87;100.00;102121.31;6099544;23;20023;-77
2023/05/08 02:30:25;;;;;;;12.02;10.90;;;;;;;10.87;100.00;102121.31;6100645;23;20070;-77
2023/05/08 02:32:53;;;;;;;17.65;10.50;;;;;;;10.86;100.00;102122.47;6100828;23;20484;-77
2023/05/08 02:35:21;;;;;;;15.98;10.95;;;;;;;10.82;100.00;102129.78;6100100;23;20025;-77
2023/05/08 02:37:56;;;;;;;25.98;11.10;;;;;;;10.82;100.00;102132.44;6074923;23;20445;-77
2023/05/08 02:40:26;;;;;;;21.48;10.95;;;;;;;10.81;100.00;102126.34;6099914;23;20390;-77
2023/05/08 02:42:54;;;;;;;59.60;11.60;;;;;;;10.78;100.00;102132.53;6075190;23;20023;-77
2023/05/08 02:45:24;;;;;;;14.77;10.88;;;;;;;10.76;100.00;102134.09;6100488;23;20022;-77
2023/05/08 02:48:17;;;;;;;14.40;11.13;;;;;;;10.77;100.00;102133.69;6100784;23;20093;-77
2023/05/08 02:50:52;;;;;;;26.08;11.00;;;;;;;10.75;100.00;102135.25;6100962;23;20386;-77
2023/05/08 02:53:30;;;;;;;35.38;11.48;;;;;;;10.72;100.00;102133.38;6073909;23;20094;-76
2023/05/08 02:56:06;;;;;;;27.90;10.60;;;;;;;10.69;100.00;102132.28;6099943;23;20019;-77
2023/05/08 02:58:44;;;;;;;11.35;10.35;;;;;;;10.69;100.00;102126.97;6100701;23;20083;-77
2023/05/08 03:01:23;;;;;;;13.43;10.75;;;;;;;10.69;100.00;102124.31;6050944;23;20357;-77
2023/05/08 03:04:00;;;;;;;24.23;9.90;;;;;;;10.66;100.00;102122.44;6069484;23;20066;-77
2023/05/08 03:06:36;;;;;;;11.32;10.23;;;;;;;10.67;100.00;102123.94;6071613;23;20023;-77
2023/05/08 03:09:05;;;;;;;10.68;9.60;;;;;;;10.68;100.00;102120.88;6068726;23;20030;-77
2023/05/08 03:11:43;;;;;;;15.85;9.80;;;;;;;10.71;100.00;102123.88;6069483;23;20024;-77
2023/05/08 03:14:13;;;;;;;25.40;10.00;;;;;;;10.70;100.00;102120.47;6046141;23;20054;-77
2023/05/08 03:16:43;;;;;;;12.13;9.90;;;;;;;10.70;100.00;102120.47;6070146;23;20020;-77
2023/05/08 03:19:19;;;;;;;21.33;10.98;;;;;;;10.70;100.00;102117.81;6045866;23;20019;-77
2023/05/08 03:21:50;;;;;;;13.93;10.27;;;;;;;10.67;100.00;102110.63;6070243;23;20016;-77
2023/05/08 03:24:19;;;;;;;16.33;10.00;;;;;;;10.63;100.00;102117.94;6044672;23;20023;-77
2023/05/08 03:26:46;;;;;;;16.45;10.13;;;;;;;10.59;100.00;102114.56;6071359;23;20102;-77
2023/05/08 03:29:14;;;;;;;11.27;10.15;;;;;;;10.54;100.00;102117.69;6069041;23;20096;-76
2023/05/08 03:31:42;;;;;;;12.32;10.18;;;;;;;10.52;100.00;102112.03;6071637;23;20054;-77
2023/05/08 03:34:12;;;;;;;26.02;10.35;;;;;;;10.47;100.00;102109.81;6069807;23;20529;-77
2023/05/08 03:36:39;;;;;;;30.00;10.05;;;;;;;10.41;100.00;102111.44;6069708;23;20023;-75
2023/05/08 03:39:06;;;;;;;18.40;10.43;;;;;;;10.44;100.00;102113.28;6068861;23;20019;-75
2023/05/08 03:41:33;;;;;;;18.20;10.20;;;;;;;10.43;100.00;102112.53;6069535;23;20026;-75
2023/05/08 03:44:02;;;;;;;26.83;10.07;;;;;;;10.43;100.00;102106.44;6069221;23;20027;-75
2023/05/08 03:46:30;;;;;;;12.88;9.90;;;;;;;10.43;100.00;102109.88;6069296;23;20024;-75
2023/05/08 03:49:01;;;;;;;21.85;10.02;;;;;;;10.40;100.00;102102.69;6069329;23;20114;-75
2023/05/08 03:51:28;;;;;;;25.90;9.68;;;;;;;10.40;100.00;102101.97;6069757;23;20019;-75
2023/05/08 03:53:54;;;;;;;42.95;10.43;;;;;;;10.39;100.00;102105.78;6068832;23;20027;-75
2023/05/08 03:56:22;;;;;;;28.05;10.10;;;;;;;10.37;100.00;102106.19;6069027;23;20417;-75
2023/05/08 03:59:11;;;;;;;16.23;9.18;;;;;;;10.34;100.00;102113.06;6069514;23;20724;-76
2023/05/08 04:01:43;;;;;;;19.63;9.43;;;;;;;10.34;100.00;102107.75;6069851;23;20024;-75
2023/05/08 04:04:12;;;;;;;24.55;9.38;;;;;;;10.34;100.00;102102.44;6073760;23;20492;-76
2023/05/08 04:07:07;;;;;;;21.50;9.27;;;;;;;10.34;100.00;102101.66;6100268;23;20690;-76
2023/05/08 04:09:54;;;;;;;24.08;9.05;;;;;;;10.31;100.00;102105.88;6051902;23;20536;-75
2023/05/08 04:12:37;;;;;;;12.82;8.95;;;;;;;10.28;100.00;102116.59;6073775;23;20475;-76
2023/05/08 04:15:08;;;;;;;25.63;9.50;;;;;;;10.27;100.00;102115.84;6073766;23;20023;-75
2023/05/08 04:17:46;;;;;;;21.02;9.88;;;;;;;10.22;100.00;102121.63;6073701;23;20054;-75
2023/05/08 04:20:18;;;;;;;13.48;8.38;;;;;;;10.19;100.00;102118.97;6098244;23;20094;-76
2023/05/08 04:22:48;;;;;;;12.23;8.25;;;;;;;10.17;100.00;102119.38;6074600;23;20090;-76
2023/05/08 04:25:17;;;;;;;16.27;9.50;;;;;;;10.17;100.00;102118.63;6050310;23;20042;-76
2023/05/08 04:27:46;;;;;;;14.85;9.43;;;;;;;10.19;100.00;102122.41;6074081;23;20259;-76
2023/05/08 04:30:13;;;;;;;10.65;9.55;;;;;;;10.24;100.00;102118.56;6073789;23;20019;-75
2023/05/08 04:32:41;;;;;;;16.17;9.48;;;;;;;10.28;100.00;102124.56;6074298;23;20461;-76
2023/05/08 04:35:12;;;;;;;14.57;9.10;;;;;;;10.35;100.00;102127.88;6074157;23;20039;-76
2023/05/08 04:37:42;;;;;;;11.93;8.73;;;;;;;10.40;100.00;102126.66;6050570;23;20495;-76
2023/05/08 04:40:09;;;;;;;15.20;9.10;;;;;;;10.45;100.00;102125.44;6099936;23;20022;-76
2023/05/08 04:42:38;;;;;;;14.35;9.55;;;;;;;10.46;100.00;102118.97;6049056;23;20046;-76
2023/05/08 04:45:05;;;;;;;10.38;9.27;;;;;;;10.53;100.00;102124.94;6097949;23;20487;-77
2023/05/08 04:47:32;;;;;;;19.77;9.85;;;;;;;10.61;100.00;102122.91;6072134;23;20357;-76
2023/05/08 04:50:00;;;;;;;11.65;8.50;;;;;;;10.71;100.00;102129.22;6072911;23;20019;-77
2023/05/08 04:52:30;;;;;;;9.85;9.00;;;;;;;10.77;100.00;102130.25;6074060;23;20456;-77
2023/05/08 04:54:56;;;;;;;14.40;9.18;;;;;;;10.80;100.00;102130.16;6100537;23;20461;-76
2023/05/08 04:57:23;;;;;;;30.65;8.82;;;;;;;11.02;100.00;102133.22;6074989;23;20023;-76
2023/05/08 04:59:50;;;;;;;10.18;9.35;;;;;;;11.27;100.00;102138.09;6074909;23;20061;-75
2023/05/08 05:02:16;;;;;;;9.32;8.52;;;;;;;11.58;100.00;102141.31;6069421;23;20024;-75
2023/05/08 05:04:45;;;;;;;9.68;8.85;;;;;;;12.16;99.76;102144.28;6069971;23;20035;-75
2023/05/08 05:07:12;;;;;;;9.88;8.98;;;;;;;12.79;95.79;102144.69;6069500;23;20052;-76
2023/05/08 05:09:38;;;;;;;9.23;8.52;;;;;;;13.23;93.83;102150.41;6071697;23;20065;-75
2023/05/08 05:12:06;;;;;;;8.85;8.15;;;;;;;14.48;88.77;102152.84;6069405;23;20023;-75
2023/05/08 05:14:34;;;;;;;9.20;8.50;;;;;;;15.59;83.86;102167.44;6046270;23;20053;-76
2023/05/08 05:17:01;;;;;;;9.35;8.25;;;;;;;16.67;78.40;102167.50;6069657;23;20028;-76
2023/05/08 05:19:28;;;;;;;8.32;7.68;;;;;;;17.23;74.39;102164.31;6093747;23;20111;-76
2023/05/08 05:21:55;;;;;;;7.60;7.00;;;;;;;17.07;72.98;102163.91;6070335;23;20027;-75
2023/05/08 05:24:21;;;;;;;7.10;6.60;;;;;;;17.44;71.96;102167.25;6069910;23;20023;-76
2023/05/08 05:26:48;;;;;;;7.20;6.70;;;;;;;16.87;71.75;102169.72;6070158;23;20031;-75
2023/05/08 05:29:14;;;;;;;7.15;6.65;;;;;;;15.54;77.01;102170.66;6069664;23;20492;-76
2023/05/08 05:31:41;;;;;;;6.90;6.28;;;;;;;14.80;80.75;102171.31;6069976;23;20460;-75
2023/05/08 05:34:08;;;;;;;7.15;6.55;;;;;;;14.34;83.82;102165.50;6070696;23;20023;-76
2023/05/08 05:36:35;;;;;;;7.45;6.95;;;;;;;14.02;85.86;102166.47;6071848;23;20023;-75
2023/05/08 05:39:02;;;;;;;7.47;6.97;;;;;;;13.76;87.97;102164.97;6069678;23;20023;-76
2023/05/08 05:41:29;;;;;;;8.30;7.70;;;;;;;13.67;89.98;102170.94;6069924;23;20030;-76
2023/05/08 05:43:56;;;;;;;8.25;7.65;;;;;;;13.53;90.93;102168.69;6069512;23;20023;-76
2023/05/08 05:46:30;;;;;;;7.78;7.28;;;;;;;13.53;92.60;102168.69;6070070;23;20029;-75
2023/05/08 05:49:00;;;;;;;8.27;7.63;;;;;;;13.62;93.13;102165.38;6069387;23;20102;-75
2023/05/08 05:51:27;;;;;;;8.30;7.53;;;;;;;13.69;94.26;102170.53;6070032;23;20054;-75
2023/05/08 05:53:54;;;;;;;8.73;8.02;;;;;;;13.78;94.12;102170.66;6069902;23;20050;-76
2023/05/08 05:56:22;;;;;;;8.98;8.07;;;;;;;14.12;94.60;102174.63;6069589;23;20027;-76
2023/05/08 05:58:49;;;;;;;9.20;8.43;;;;;;;14.59;92.51;102180.06;6069828;23;20019;-76
2023/05/08 06:01:15;;;;;;;9.63;8.93;;;;;;;15.03;90.27;102180.91;6069385;23;20023;-77
2023/05/08 06:03:42;;;;;;;10.93;9.07;;;;;;;15.12;89.84;102182.91;6068975;23;20434;-76
2023/05/08 06:06:10;;;;;;;10.05;9.25;;;;;;;15.38;89.60;102178.91;6069486;23;20035;-77
2023/05/08 06:08:36;;;;;;;10.27;9.25;;;;;;;15.43;88.82;102178.34;6070274;23;20015;-78
2023/05/08 06:11:03;;;;;;;10.55;9.55;;;;;;;15.57;87.71;102187.84;6069210;23;20024;-79
2023/05/08 06:13:30;;;;;;;11.45;10.38;;;;;;;15.54;88.26;102183.34;6069872;23;20489;-77
2023/05/08 06:15:57;;;;;;;11.88;10.77;;;;;;;15.82;87.53;102182.31;6069452;23;20458;-77
2023/05/08 06:18:24;;;;;;;11.73;10.63;;;;;;;15.94;88.26;102184.16;6069134;23;20026;-77
2023/05/08 06:20:56;;;;;;;13.60;12.20;;;;;;;15.87;86.33;102179.06;6071514;23;20027;-76
2023/05/08 06:23:23;;;;;;;16.17;13.25;;;;;;;15.74;86.94;102181.06;6071424;23;20019;-77
2023/05/08 06:25:50;;;;;;;13.15;11.95;;;;;;;16.01;88.11;102185.81;6071460;23;20450;-77
2023/05/08 06:28:16;;;;;;;14.68;13.23;;;;;;;16.03;86.71;102178.06;6069281;23;20098;-77
2023/05/08 06:30:43;;;;;;;14.43;12.70;;;;;;;15.89;86.62;102197.41;6071374;23;20446;-77
2023/05/08 06:33:10;;;;;;;14.02;12.63;;;;;;;15.70;87.95;102185.81;6068731;23;20583;-78
2023/05/08 06:35:36;;;;;;;15.43;13.82;;;;;;;15.74;89.16;102185.69;6071276;23;20026;-77
2023/05/08 06:38:03;;;;;;;14.32;12.93;;;;;;;15.79;89.21;102190.50;6069505;23;20407;-77
2023/05/08 06:40:29;;;;;;;15.05;13.63;;;;;;;15.79;88.45;102190.50;6072200;23;20392;-77
2023/05/08 06:42:56;;;;;;;15.18;13.68;;;;;;;15.93;89.44;102192.66;6072304;23;20019;-76
2023/05/08 06:45:22;;;;;;;15.18;13.70;;;;;;;16.05;89.40;102189.09;6070868;23;20086;-78
2023/05/08 06:47:49;;;;;;;15.23;13.60;;;;;;;16.12;87.46;102190.78;6070457;23;20446;-79
2023/05/08 06:50:15;;;;;;;15.95;14.10;;;;;;;16.26;88.63;102192.91;6072352;23;20073;-80
2023/05/08 06:52:42;;;;;;;15.05;13.65;;;;;;;16.44;87.75;102192.94;6072523;23;20030;-79
2023/05/08 06:55:08;;;;;;;16.23;14.57;;;;;;;16.56;87.77;102194.03;6070347;23;20024;-77
2023/05/08 06:57:35;;;;;;;17.80;15.90;;;;;;;16.64;87.30;102187.94;6072499;23;20469;-78
2023/05/08 07:00:01;;;;;;;18.38;15.60;;;;;;;16.81;86.34;102198.41;6072001;23;20015;-78
2023/05/08 07:02:28;;;;;;;17.38;15.57;;;;;;;16.76;87.06;102199.75;6082075;23;20086;-78
2023/05/08 07:04:55;;;;;;;16.88;15.20;;;;;;;17.08;87.08;102203.06;6101374;23;20018;-78
2023/05/08 07:07:22;;;;;;;16.48;14.88;;;;;;;17.18;86.36;102196.47;6101852;23;20082;-78
2023/05/08 07:09:48;;;;;;;17.83;15.98;;;;;;;17.12;86.38;102204.41;6101339;23;20489;-77
2023/05/08 07:12:15;;;;;;;17.98;16.13;;;;;;;17.12;87.14;102190.19;6100944;23;20473;-80
2023/05/08 07:14:42;;;;;;;17.92;16.02;;;;;;;17.07;87.24;102196.94;6101156;23;20027;-80
2023/05/08 07:17:09;;;;;;;20.27;16.73;;;;;;;16.96;87.00;102197.38;6100783;23;20081;-80
2023/05/08 07:19:36;;;;;;;18.70;16.90;;;;;;;16.97;88.63;102203.50;6101393;23;20586;-79
2023/05/08 07:22:03;;;;;;;19.33;17.35;;;;;;;16.88;89.04;102200.81;6100966;23;20015;-78
2023/05/08 07:24:31;;;;;;;18.83;16.95;;;;;;;16.70;90.36;102198.84;6101307;23;20442;-80
2023/05/08 07:26:58;;;;;;;21.42;18.27;;;;;;;16.64;90.26;102201.38;6074921;23;20061;-81
2023/05/08 07:29:25;;;;;;;23.58;18.25;;;;;;;16.62;91.72;102190.31;6101228;23;20480;-80
2023/05/08 07:31:52;;;;;;;21.33;18.23;;;;;;;16.69;92.21;102196.63;6100261;23;20014;-80
2023/05/08 07:34:19;;;;;;;22.08;19.02;;;;;;;16.65;93.22;102192.13;6100712;23;20438;-79
2023/05/08 07:36:45;;;;;;;21.77;19.50;;;;;;;16.72;93.29;102190.34;6101201;23;20019;-80
2023/05/08 07:39:11;;;;;;;20.85;18.77;;;;;;;16.75;94.05;102187.50;6074822;23;20026;-80
2023/05/08 07:41:39;;;;;;;21.55;19.42;;;;;;;16.72;92.71;102191.09;6101013;23;20019;-80
2023/05/08 07:44:06;;;;;;;22.73;20.20;;;;;;;16.70;92.62;102192.72;6100711;23;20023;-80
2023/05/08 07:46:33;;;;;;;22.20;19.90;;;;;;;16.73;91.75;102187.22;6100707;23;20015;-82
2023/05/08 07:49:00;;;;;;;24.48;21.10;;;;;;;16.81;91.67;102188.38;6100838;23;20026;-81
2023/05/08 07:51:28;;;;;;;23.73;21.38;;;;;;;16.67;92.70;102191.69;6100578;23;20022;-82
2023/05/08 07:53:55;;;;;;;23.58;21.10;;;;;;;16.75;93.66;102195.59;6075475;23;20023;-82
2023/05/08 07:56:21;;;;;;;23.58;21.17;;;;;;;16.87;93.19;102180.47;6100757;23;20389;-80
2023/05/08 07:58:48;;;;;;;21.98;19.70;;;;;;;17.03;93.40;102184.81;6100872;23;20071;-82
2023/05/08 08:01:16;;;;;;;24.35;20.35;;;;;;;17.11;92.07;102196.78;6100219;23;20431;-80
2023/05/08 08:03:44;;;;;;;23.55;21.02;;;;;;;17.16;91.60;102196.19;6100591;23;20023;-80
2023/05/08 08:06:11;;;;;;;24.08;21.17;;;;;;;17.18;91.02;102193.78;6100719;23;20015;-80
2023/05/08 08:08:38;;;;;;;27.00;20.50;;;;;;;17.25;91.39;102188.06;6099454;23;20454;-80
2023/05/08 08:11:05;;;;;;;27.48;21.15;;;;;;;17.23;90.85;102195.84;6100557;23;20015;-80
2023/05/08 08:13:32;;;;;;;23.83;21.33;;;;;;;17.25;90.94;102196.91;6100643;23;20027;-80
2023/05/08 08:15:59;;;;;;;25.33;20.42;;;;;;;17.27;92.19;102197.19;6100934;23;20435;-81
2023/05/08 08:18:26;;;;;;;23.75;20.85;;;;;;;17.16;91.27;102204.25;6101016;23;20022;-81
2023/05/08 08:20:52;;;;;;;22.17;19.80;;;;;;;17.19;92.37;102203.34;6101156;23;20014;-81
2023/05/08 08:23:19;;;;;;;27.25;20.60;;;;;;;17.10;91.12;102204.09;6100560;23;20429;-81
2023/05/08 08:25:45;;;;;;;22.40;19.95;;;;;;;17.02;90.80;102196.78;6101119;23;20039;-80
2023/05/08 08:28:12;;;;;;;27.20;20.27;;;;;;;17.05;91.20;102196.63;6100086;23;20022;-80
2023/05/08 08:30:38;;;;;;;26.13;19.90;;;;;;;17.10;91.40;102196.03;6101109;23;20025;-82
2023/05/08 08:33:06;;;;;;;21.80;19.70;;;;;;;17.10;91.68;102190.66;6100515;23;20034;-81
2023/05/08 08:35:32;;;;;;;22.83;20.63;;;;;;;17.09;91.66;102189.16;6075559;23;20078;-81
2023/05/08 08:37:59;;;;;;;23.85;19.70;;;;;;;17.14;91.30;102187.81;6100672;23;20441;-79
2023/05/08 08:40:25;;;;;;;21.30;19.05;;;;;;;17.32;91.36;102185.06;6101304;23;20053;-80
2023/05/08 08:42:53;;;;;;;22.23;19.33;;;;;;;17.40;90.82;102180.88;6100352;23;20139;-80
2023/05/08 08:45:20;;;;;;;22.35;20.10;;;;;;;17.65;88.96;102182.47;6100660;23;20071;-79
2023/05/08 08:47:47;;;;;;;21.67;19.40;;;;;;;18.07;88.23;102177.06;6100829;23;20019;-79
2023/05/08 08:50:14;;;;;;;21.52;18.75;;;;;;;18.37;87.32;102182.63;6100365;23;20026;-78
2023/05/08 08:53:08;;;;;;;21.75;18.95;;;;;;;18.56;86.95;102175.88;6101141;23;20023;-80
2023/05/08 08:55:39;;;;;;;21.42;19.17;;;;;;;18.46;85.08;102182.53;6101031;23;20102;-79
2023/05/08 08:58:31;;;;;;;21.75;19.65;;;;;;;18.43;85.65;102186.16;6099990;23;20019;-79
2023/05/08 09:00:59;;;;;;;;;;;;;;;18.40;85.27;102187.06;6100722;23;20022;-79
2023/05/08 09:03:26;;;;;;;20.60;18.60;;;;;;;18.33;84.50;102183.53;6100082;23;19925;-81
2023/05/08 09:05:53;;;;;;;20.80;18.67;;;;;;;18.43;84.91;102186.91;6075099;23;20023;-82
2023/05/08 09:08:20;;;;;;;20.95;18.80;;;;;;;18.49;84.04;102189.72;6100303;23;20049;-80
2023/05/08 09:10:47;;;;;;;20.23;18.17;;;;;;;18.52;83.94;102191.50;6100733;23;20038;-84
2023/05/08 09:13:14;;;;;;;19.67;17.58;;;;;;;18.64;84.71;102188.59;6099681;23;20025;-79
2023/05/08 09:15:43;;;;;;;19.75;17.75;;;;;;;18.76;85.25;102183.44;6100652;23;20023;-83
2023/05/08 09:18:10;;;;;;;19.38;17.48;;;;;;;18.83;83.27;102189.19;6100459;23;20149;-80
2023/05/08 09:20:39;;;;;;;18.67;16.80;;;;;;;19.07;84.45;102188.41;6100908;23;20019;-78
2023/05/08 09:23:06;;;;;;;18.65;16.45;;;;;;;19.11;82.12;102186.28;6100515;23;20023;-79
2023/05/08 09:25:47;;;;;;;20.02;16.90;;;;;;;19.15;82.58;102184.13;6099568;23;20014;-81
2023/05/08 09:28:24;;;;;;;20.30;18.13;;;;;;;19.16;81.08;102188.31;6099759;23;20014;-78
2023/05/08 09:30:57;;;;;;;20.70;17.42;;;;;;;19.15;80.93;102184.88;6100246;23;20022;-79
2023/05/08 09:33:25;;;;;;;18.73;16.88;;;;;;;19.55;79.65;102191.72;6099857;23;20026;-79
2023/05/08 09:35:53;;;;;;;18.85;17.05;;;;;;;19.65;80.82;102191.13;6100476;23;20015;-79
2023/05/08 09:38:37;;;;;;;24.00;17.95;;;;;;;19.56;79.47;102190.50;6099861;23;20098;-78
2023/05/08 09:41:07;;;;;;;19.15;16.77;;;;;;;19.62;79.87;102181.25;6099067;23;20015;-80
2023/05/08 09:43:34;;;;;;;18.00;16.40;;;;;;;20.24;79.14;102192.94;6074741;23;20050;-79
2023/05/08 09:46:23;;;;;;;22.67;19.30;;;;;;;20.69;76.93;102183.44;6050079;23;20054;-78
2023/05/08 09:48:52;;;;;;;20.88;18.70;;;;;;;20.62;74.52;102186.56;6100168;23;20469;-79
2023/05/08 09:51:20;;;;;;;20.55;18.15;;;;;;;20.88;74.01;102194.69;6099563;23;20022;-79
2023/05/08 09:53:53;;;;;;;21.35;19.17;;;;;;;20.88;73.66;102184.59;6100397;23;20027;-79
2023/05/08 09:56:37;;;;;;;20.45;18.55;;;;;;;20.84;72.84;102194.16;6099209;23;20604;-79
2023/05/08 09:59:21;;;;;;;23.10;18.83;;;;;;;20.54;73.97;102188.91;6099858;23;20019;-80
2023/05/08 10:01:48;;;;;;;21.15;18.77;;;;;;;20.66;73.96;102189.06;6074345;23;20015;-83
2023/05/08 10:04:14;;;;;;;21.23;19.10;;;;;;;20.45;73.05;102191.75;6099683;23;20026;-79
2023/05/08 10:06:41;;;;;;;22.30;19.20;;;;;;;20.35;74.48;102192.34;6100005;23;20019;-81
2023/05/08 10:09:13;;;;;;;22.42;20.13;;;;;;;20.36;75.68;102188.44;6099692;23;20026;-81
2023/05/08 10:11:41;;;;;;;25.10;21.35;;;;;;;20.28;74.49;102194.22;6099341;23;20019;-82
2023/05/08 10:14:08;;;;;;;24.17;21.55;;;;;;;20.53;76.09;102198.25;6099574;23;20420;-83
2023/05/08 10:16:40;;;;;;;25.02;22.08;;;;;;;21.17;74.11;102193.75;6101309;23;20412;-80
2023/05/08 10:19:15;;;;;;;25.85;21.73;;;;;;;21.02;73.97;102204.69;6101124;23;20019;-83
2023/05/08 10:21:46;;;;;;;31.50;25.65;;;;;;;20.89;74.40;102202.34;6101632;23;20019;-81
2023/05/08 10:24:25;;;;;;;33.33;27.33;;;;;;;20.81;74.07;102201.25;6100483;23;20095;-80
2023/05/08 10:27:15;;;;;;;40.88;30.55;;;;;;;20.67;74.58;102193.25;6101701;23;20019;-80
2023/05/08 10:29:53;;;;;;;39.28;32.80;;;;;;;20.55;74.69;102195.81;6101394;23;20011;-80
2023/05/08 10:32:21;;;;;;;36.65;29.83;;;;;;;20.54;73.07;102194.31;6100520;23;20021;-79
2023/05/08 10:34:55;;;;;;;38.55;30.63;;;;;;;20.41;73.32;102187.75;6101246;23;20038;-80
2023/05/08 10:37:22;;;;;;;36.38;29.92;;;;;;;20.28;73.41;102188.81;6101346;23;20015;-79
2023/05/08 10:39:52;;;;;;;41.97;29.73;;;;;;;20.42;74.54;102197.38;6100562;23;20023;-79
2023/05/08 10:42:19;;;;;;;46.05;33.13;;;;;;;20.50;73.64;102193.78;6100500;23;20890;-79
2023/05/08 10:44:46;;;;;;;43.17;33.90;;;;;;;20.54;73.38;102201.69;6100934;23;20405;-81
2023/05/08 10:47:18;;;;;;;50.35;37.17;;;;;;;20.63;74.78;102191.50;6100599;23;20023;-80
2023/05/08 10:50:03;;;;;;;52.35;36.90;;;;;;;20.79;72.87;102197.56;6101139;23;20011;-80
2023/05/08 10:52:48;;;;;;;52.05;36.42;;;;;;;20.92;72.92;102190.56;6100970;23;20046;-81
2023/05/08 10:55:16;;;;;;;45.40;33.72;;;;;;;21.12;72.90;102189.78;6099981;23;20153;-81
2023/05/08 10:58:05;;;;;;;52.22;35.03;;;;;;;21.34;71.19;102191.97;6100685;23;20465;-81
2023/05/08 11:00:50;;;;;;;44.63;32.85;;;;;;;21.27;69.40;102186.97;6101224;23;20141;-81
2023/05/08 11:03:42;;;;;;;44.13;33.60;;;;;;;21.17;68.81;102193.75;6069525;23;20028;-80
2023/05/08 11:06:09;;;;;;;43.63;33.63;;;;;;;20.98;69.03;102191.38;6071454;23;20095;-82
2023/05/08 11:08:50;;;;;;;47.15;34.30;;;;;;;20.88;68.96;102189.28;6071668;23;20023;-81
2023/05/08 11:11:32;;;;;;;47.60;35.58;;;;;;;20.91;69.93;102191.78;6071600;23;20072;-82
2023/05/08 11:14:08;;;;;;;48.67;34.17;;;;;;;20.89;69.92;102183.41;6071318;23;20016;-81
2023/05/08 11:16:52;;;;;;;51.88;36.58;;;;;;;20.86;70.80;102184.34;6071944;23;20026;-82
2023/05/08 11:19:21;;;;;;;54.10;38.75;;;;;;;20.75;70.87;102178.09;6071351;23;20150;-82
2023/05/08 11:22:09;;;;;;;57.08;39.25;;;;;;;20.59;70.84;102174.72;6071671;23;20019;-81
2023/05/08 11:24:37;;;;;;;59.05;39.30;;;;;;;20.50;71.92;102172.16;6072002;23;20117;-80